sensor_id;sensor_type;location;lat;lon;timestamp;P1;durP1;ratioP1;P2;durP2;ratioP2
18190;SDS011;47004;51.366;12.348;2022-09-20T00:00:17;3.20;;;1.63;;
18190;SDS011;47004;51.366;12.348;2022-09-20T00:02:19;7.00;;;2.20;;
18190;SDS011;47004;51.366;12.348;2022-09-20T00:04:21;8.80;;;1.70;;
18190;SDS011;47004;51.366;12.348;2022-09-20T00:06:24;3.97;;;1.70;;
18190;SDS011;47004;51.366;12.348;2022-09-20T00:08:28;4.27;;;1.97;;
18190;SDS011;47004;51.366;12.348;2022-09-20T00:10:31;3.10;;;1.30;;
18190;SDS011;47004;51.366;12.348;2022-09-20T00:12:36;4.33;;;1.80;;
18190;SDS011;47004;51.366;12.348;2022-09-20T00:14:39;4.97;;;1.80;;
18190;SDS011;47004;51.366;12.348;2022-09-20T00:16:41;5.13;;;2.10;;
18190;SDS011;47004;51.366;12.348;2022-09-20T00:18:43;3.70;;;1.73;;
18190;SDS011;47004;51.366;12.348;2022-09-20T00:20:49;2.63;;;1.67;;
18190;SDS011;47004;51.366;12.348;2022-09-20T00:22:51;5.20;;;1.77;;
18190;SDS011;47004;51.366;12.348;2022-09-20T00:24:53;6.60;;;2.10;;
18190;SDS011;47004;51.366;12.348;2022-09-20T00:26:55;8.30;;;2.20;;
18190;SDS011;47004;51.366;12.348;2022-09-20T00:28:59;4.60;;;1.90;;
18190;SDS011;47004;51.366;12.348;2022-09-20T00:33:22;4.07;;;2.00;;
18190;SDS011;47004;51.366;12.348;2022-09-20T00:35:45;4.33;;;1.70;;
18190;SDS011;47004;51.366;12.348;2022-09-20T00:37:46;5.07;;;2.00;;
18190;SDS011;47004;51.366;12.348;2022-09-20T00:39:48;3.83;;;1.77;;
18190;SDS011;47004;51.366;12.348;2022-09-20T00:41:50;2.73;;;1.60;;
18190;SDS011;47004;51.366;12.348;2022-09-20T00:43:52;5.40;;;1.87;;
18190;SDS011;47004;51.366;12.348;2022-09-20T00:45:56;5.80;;;2.03;;
18190;SDS011;47004;51.366;12.348;2022-09-20T00:47:59;5.67;;;1.73;;
18190;SDS011;47004;51.366;12.348;2022-09-20T00:50:12;2.60;;;1.87;;
18190;SDS011;47004;51.366;12.348;2022-09-20T00:52:22;3.77;;;1.90;;
18190;SDS011;47004;51.366;12.348;2022-09-20T00:54:25;4.27;;;1.97;;
18190;SDS011;47004;51.366;12.348;2022-09-20T00:56:29;4.67;;;2.03;;
18190;SDS011;47004;51.366;12.348;2022-09-20T00:58:34;5.50;;;2.10;;
18190;SDS011;47004;51.366;12.348;2022-09-20T01:00:39;3.90;;;1.73;;
18190;SDS011;47004;51.366;12.348;2022-09-20T01:02:46;6.87;;;2.40;;
18190;SDS011;47004;51.366;12.348;2022-09-20T01:04:50;5.57;;;2.00;;
18190;SDS011;47004;51.366;12.348;2022-09-20T01:06:54;4.60;;;2.10;;
18190;SDS011;47004;51.366;12.348;2022-09-20T01:08:58;4.27;;;1.60;;
18190;SDS011;47004;51.366;12.348;2022-09-20T01:11:03;5.33;;;1.63;;
18190;SDS011;47004;51.366;12.348;2022-09-20T01:13:05;4.87;;;2.00;;
18190;SDS011;47004;51.366;12.348;2022-09-20T01:15:07;4.13;;;1.90;;
18190;SDS011;47004;51.366;12.348;2022-09-20T01:17:11;3.40;;;1.67;;
18190;SDS011;47004;51.366;12.348;2022-09-20T01:19:17;4.20;;;2.20;;
18190;SDS011;47004;51.366;12.348;2022-09-20T01:21:28;3.90;;;2.07;;
18190;SDS011;47004;51.366;12.348;2022-09-20T01:23:32;4.57;;;2.10;;
18190;SDS011;47004;51.366;12.348;2022-09-20T01:28:19;3.47;;;2.10;;
18190;SDS011;47004;51.366;12.348;2022-09-20T01:30:22;3.87;;;2.17;;
18190;SDS011;47004;51.366;12.348;2022-09-20T01:32:28;4.13;;;2.00;;
18190;SDS011;47004;51.366;12.348;2022-09-20T01:34:41;5.60;;;2.40;;
18190;SDS011;47004;51.366;12.348;2022-09-20T01:36:48;4.43;;;2.30;;
18190;SDS011;47004;51.366;12.348;2022-09-20T01:38:56;4.97;;;2.30;;
18190;SDS011;47004;51.366;12.348;2022-09-20T01:41:08;6.50;;;2.90;;
18190;SDS011;47004;51.366;12.348;2022-09-20T01:43:14;9.13;;;2.90;;
18190;SDS011;47004;51.366;12.348;2022-09-20T01:45:26;9.77;;;3.23;;
18190;SDS011;47004;51.366;12.348;2022-09-20T01:47:30;8.00;;;3.17;;
18190;SDS011;47004;51.366;12.348;2022-09-20T01:49:36;10.07;;;2.80;;
18190;SDS011;47004;51.366;12.348;2022-09-20T01:51:51;5.37;;;2.70;;
18190;SDS011;47004;51.366;12.348;2022-09-20T01:54:50;7.20;;;3.00;;
18190;SDS011;47004;51.366;12.348;2022-09-20T01:57:40;10.97;;;2.73;;
18190;SDS011;47004;51.366;12.348;2022-09-20T02:00:04;7.23;;;3.07;;
18190;SDS011;47004;51.366;12.348;2022-09-20T02:02:24;6.17;;;2.77;;
18190;SDS011;47004;51.366;12.348;2022-09-20T02:07:12;6.43;;;2.60;;
18190;SDS011;47004;51.366;12.348;2022-09-20T02:09:48;9.00;;;2.60;;
18190;SDS011;47004;51.366;12.348;2022-09-20T02:12:21;7.23;;;2.87;;
18190;SDS011;47004;51.366;12.348;2022-09-20T02:14:36;6.03;;;2.70;;
18190;SDS011;47004;51.366;12.348;2022-09-20T02:16:47;4.53;;;2.63;;
18190;SDS011;47004;51.366;12.348;2022-09-20T02:18:55;6.30;;;2.83;;
18190;SDS011;47004;51.366;12.348;2022-09-20T02:21:14;5.57;;;2.43;;
18190;SDS011;47004;51.366;12.348;2022-09-20T02:23:33;9.33;;;3.03;;
18190;SDS011;47004;51.366;12.348;2022-09-20T02:28:09;6.50;;;3.10;;
18190;SDS011;47004;51.366;12.348;2022-09-20T02:30:23;7.90;;;2.80;;
18190;SDS011;47004;51.366;12.348;2022-09-20T02:32:43;10.23;;;3.37;;
18190;SDS011;47004;51.366;12.348;2022-09-20T02:35:06;15.23;;;3.27;;
18190;SDS011;47004;51.366;12.348;2022-09-20T02:37:38;6.57;;;2.70;;
18190;SDS011;47004;51.366;12.348;2022-09-20T02:39:56;9.07;;;3.10;;
18190;SDS011;47004;51.366;12.348;2022-09-20T02:42:11;11.50;;;3.10;;
18190;SDS011;47004;51.366;12.348;2022-09-20T02:44:21;4.63;;;2.93;;
18190;SDS011;47004;51.366;12.348;2022-09-20T02:46:33;8.33;;;2.83;;
18190;SDS011;47004;51.366;12.348;2022-09-20T02:48:44;10.27;;;3.00;;
18190;SDS011;47004;51.366;12.348;2022-09-20T02:50:53;5.23;;;2.57;;
18190;SDS011;47004;51.366;12.348;2022-09-20T02:53:07;6.37;;;2.70;;
18190;SDS011;47004;51.366;12.348;2022-09-20T02:55:20;7.93;;;2.93;;
18190;SDS011;47004;51.366;12.348;2022-09-20T02:57:35;7.77;;;3.13;;
18190;SDS011;47004;51.366;12.348;2022-09-20T02:59:45;8.10;;;3.13;;
18190;SDS011;47004;51.366;12.348;2022-09-20T03:01:55;6.50;;;2.87;;
18190;SDS011;47004;51.366;12.348;2022-09-20T03:06:37;16.20;;;3.13;;
18190;SDS011;47004;51.366;12.348;2022-09-20T03:08:46;8.17;;;2.80;;
18190;SDS011;47004;51.366;12.348;2022-09-20T03:10:53;9.33;;;2.53;;
18190;SDS011;47004;51.366;12.348;2022-09-20T03:13:07;9.53;;;2.73;;
18190;SDS011;47004;51.366;12.348;2022-09-20T03:15:15;7.37;;;2.67;;
18190;SDS011;47004;51.366;12.348;2022-09-20T03:17:31;5.93;;;2.70;;
18190;SDS011;47004;51.366;12.348;2022-09-20T03:19:47;8.63;;;2.90;;
18190;SDS011;47004;51.366;12.348;2022-09-20T03:22:02;5.90;;;2.63;;
18190;SDS011;47004;51.366;12.348;2022-09-20T03:24:15;5.40;;;2.60;;
18190;SDS011;47004;51.366;12.348;2022-09-20T03:26:28;9.03;;;2.70;;
18190;SDS011;47004;51.366;12.348;2022-09-20T03:28:56;6.00;;;2.30;;
18190;SDS011;47004;51.366;12.348;2022-09-20T03:31:06;5.43;;;2.60;;
18190;SDS011;47004;51.366;12.348;2022-09-20T03:33:22;6.33;;;2.60;;
18190;SDS011;47004;51.366;12.348;2022-09-20T03:35:34;11.17;;;2.70;;
18190;SDS011;47004;51.366;12.348;2022-09-20T03:37:52;4.83;;;2.30;;
18190;SDS011;47004;51.366;12.348;2022-09-20T03:42:40;6.13;;;2.37;;
18190;SDS011;47004;51.366;12.348;2022-09-20T03:47:24;8.40;;;2.40;;
18190;SDS011;47004;51.366;12.348;2022-09-20T03:52:04;6.67;;;2.00;;
18190;SDS011;47004;51.366;12.348;2022-09-20T03:54:21;9.07;;;2.43;;
18190;SDS011;47004;51.366;12.348;2022-09-20T03:59:25;7.33;;;2.40;;
18190;SDS011;47004;51.366;12.348;2022-09-20T04:01:52;7.40;;;2.33;;
18190;SDS011;47004;51.366;12.348;2022-09-20T04:04:06;7.07;;;2.60;;
18190;SDS011;47004;51.366;12.348;2022-09-20T04:06:33;8.57;;;2.60;;
18190;SDS011;47004;51.366;12.348;2022-09-20T04:08:59;7.10;;;2.20;;
18190;SDS011;47004;51.366;12.348;2022-09-20T04:11:26;7.17;;;2.53;;
18190;SDS011;47004;51.366;12.348;2022-09-20T04:13:34;10.13;;;2.40;;
18190;SDS011;47004;51.366;12.348;2022-09-20T04:15:40;6.27;;;2.23;;
18190;SDS011;47004;51.366;12.348;2022-09-20T04:17:52;4.13;;;2.40;;
18190;SDS011;47004;51.366;12.348;2022-09-20T04:20:00;7.07;;;2.77;;
18190;SDS011;47004;51.366;12.348;2022-09-20T04:22:06;7.97;;;2.50;;
18190;SDS011;47004;51.366;12.348;2022-09-20T04:24:12;9.30;;;2.80;;
18190;SDS011;47004;51.366;12.348;2022-09-20T04:26:23;4.90;;;2.60;;
18190;SDS011;47004;51.366;12.348;2022-09-20T04:28:29;12.53;;;2.70;;
18190;SDS011;47004;51.366;12.348;2022-09-20T04:30:35;4.73;;;2.70;;
18190;SDS011;47004;51.366;12.348;2022-09-20T04:32:43;5.70;;;2.60;;
18190;SDS011;47004;51.366;12.348;2022-09-20T04:34:53;10.20;;;3.00;;
18190;SDS011;47004;51.366;12.348;2022-09-20T04:37:21;8.27;;;2.90;;
18190;SDS011;47004;51.366;12.348;2022-09-20T04:39:33;10.70;;;3.10;;
18190;SDS011;47004;51.366;12.348;2022-09-20T04:44:21;6.13;;;2.60;;
18190;SDS011;47004;51.366;12.348;2022-09-20T04:46:42;8.03;;;3.10;;
18190;SDS011;47004;51.366;12.348;2022-09-20T04:51:51;7.63;;;3.17;;
18190;SDS011;47004;51.366;12.348;2022-09-20T04:54:18;4.63;;;3.10;;
18190;SDS011;47004;51.366;12.348;2022-09-20T04:56:51;7.90;;;3.70;;
18190;SDS011;47004;51.366;12.348;2022-09-20T04:59:08;9.10;;;2.97;;
18190;SDS011;47004;51.366;12.348;2022-09-20T05:07:05;12.30;;;3.97;;
18190;SDS011;47004;51.366;12.348;2022-09-20T05:09:31;9.33;;;4.17;;
18190;SDS011;47004;51.366;12.348;2022-09-20T05:11:58;7.80;;;3.83;;
18190;SDS011;47004;51.366;12.348;2022-09-20T05:14:36;9.43;;;4.10;;
18190;SDS011;47004;51.366;12.348;2022-09-20T05:16:51;12.80;;;3.97;;
18190;SDS011;47004;51.366;12.348;2022-09-20T05:19:12;11.03;;;4.30;;
18190;SDS011;47004;51.366;12.348;2022-09-20T05:21:31;10.13;;;3.77;;
18190;SDS011;47004;51.366;12.348;2022-09-20T05:26:14;9.57;;;4.03;;
18190;SDS011;47004;51.366;12.348;2022-09-20T05:28:27;10.63;;;4.90;;
18190;SDS011;47004;51.366;12.348;2022-09-20T05:30:37;10.87;;;4.80;;
18190;SDS011;47004;51.366;12.348;2022-09-20T05:32:44;10.03;;;4.57;;
18190;SDS011;47004;51.366;12.348;2022-09-20T05:34:51;14.77;;;5.20;;
18190;SDS011;47004;51.366;12.348;2022-09-20T05:36:59;12.27;;;5.37;;
18190;SDS011;47004;51.366;12.348;2022-09-20T05:39:10;26.00;;;8.37;;
18190;SDS011;47004;51.366;12.348;2022-09-20T05:41:29;18.97;;;7.00;;
18190;SDS011;47004;51.366;12.348;2022-09-20T05:43:41;22.03;;;8.17;;
18190;SDS011;47004;51.366;12.348;2022-09-20T05:45:57;18.27;;;7.33;;
18190;SDS011;47004;51.366;12.348;2022-09-20T05:48:09;16.87;;;7.60;;
18190;SDS011;47004;51.366;12.348;2022-09-20T05:50:23;22.60;;;7.63;;
18190;SDS011;47004;51.366;12.348;2022-09-20T05:52:40;16.53;;;6.67;;
18190;SDS011;47004;51.366;12.348;2022-09-20T05:54:58;17.20;;;6.00;;
18190;SDS011;47004;51.366;12.348;2022-09-20T05:57:20;16.03;;;6.27;;
18190;SDS011;47004;51.366;12.348;2022-09-20T05:59:33;24.17;;;7.23;;
18190;SDS011;47004;51.366;12.348;2022-09-20T06:01:45;17.10;;;6.67;;
18190;SDS011;47004;51.366;12.348;2022-09-20T06:04:00;19.97;;;7.80;;
18190;SDS011;47004;51.366;12.348;2022-09-20T06:06:17;17.47;;;7.37;;
18190;SDS011;47004;51.366;12.348;2022-09-20T06:08:30;16.80;;;7.23;;
18190;SDS011;47004;51.366;12.348;2022-09-20T06:10:57;16.20;;;6.60;;
18190;SDS011;47004;51.366;12.348;2022-09-20T06:13:22;22.30;;;7.53;;
18190;SDS011;47004;51.366;12.348;2022-09-20T06:15:39;18.60;;;7.23;;
18190;SDS011;47004;51.366;12.348;2022-09-20T06:17:49;19.53;;;6.70;;
18190;SDS011;47004;51.366;12.348;2022-09-20T06:20:02;16.70;;;6.13;;
18190;SDS011;47004;51.366;12.348;2022-09-20T06:22:15;20.03;;;6.30;;
18190;SDS011;47004;51.366;12.348;2022-09-20T06:24:32;13.57;;;6.00;;
18190;SDS011;47004;51.366;12.348;2022-09-20T06:26:38;12.93;;;5.73;;
18190;SDS011;47004;51.366;12.348;2022-09-20T06:28:44;19.73;;;6.33;;
18190;SDS011;47004;51.366;12.348;2022-09-20T06:30:51;16.43;;;5.53;;
18190;SDS011;47004;51.366;12.348;2022-09-20T06:32:55;14.03;;;5.60;;
18190;SDS011;47004;51.366;12.348;2022-09-20T06:34:58;12.47;;;5.87;;
18190;SDS011;47004;51.366;12.348;2022-09-20T06:37:05;14.37;;;6.23;;
18190;SDS011;47004;51.366;12.348;2022-09-20T06:39:37;15.77;;;5.97;;
18190;SDS011;47004;51.366;12.348;2022-09-20T06:42:03;14.67;;;6.00;;
18190;SDS011;47004;51.366;12.348;2022-09-20T06:44:05;11.03;;;5.80;;
18190;SDS011;47004;51.366;12.348;2022-09-20T06:46:08;14.80;;;6.00;;
18190;SDS011;47004;51.366;12.348;2022-09-20T06:48:10;10.33;;;5.13;;
18190;SDS011;47004;51.366;12.348;2022-09-20T06:50:14;13.37;;;5.17;;
18190;SDS011;47004;51.366;12.348;2022-09-20T06:52:17;12.33;;;5.10;;
18190;SDS011;47004;51.366;12.348;2022-09-20T06:54:21;11.07;;;4.93;;
18190;SDS011;47004;51.366;12.348;2022-09-20T06:56:27;7.60;;;4.67;;
18190;SDS011;47004;51.366;12.348;2022-09-20T06:58:32;8.30;;;4.30;;
18190;SDS011;47004;51.366;12.348;2022-09-20T07:00:33;9.50;;;5.00;;
18190;SDS011;47004;51.366;12.348;2022-09-20T07:02:37;11.00;;;4.20;;
18190;SDS011;47004;51.366;12.348;2022-09-20T07:04:39;10.70;;;4.77;;
18190;SDS011;47004;51.366;12.348;2022-09-20T07:06:41;13.43;;;4.57;;
18190;SDS011;47004;51.366;12.348;2022-09-20T07:08:42;11.20;;;4.73;;
18190;SDS011;47004;51.366;12.348;2022-09-20T07:10:44;10.17;;;4.73;;
18190;SDS011;47004;51.366;12.348;2022-09-20T07:12:47;12.60;;;5.20;;
18190;SDS011;47004;51.366;12.348;2022-09-20T07:14:49;13.73;;;5.60;;
18190;SDS011;47004;51.366;12.348;2022-09-20T07:16:51;13.10;;;5.23;;
18190;SDS011;47004;51.366;12.348;2022-09-20T07:18:54;13.77;;;5.50;;
18190;SDS011;47004;51.366;12.348;2022-09-20T07:20:56;14.33;;;6.17;;
18190;SDS011;47004;51.366;12.348;2022-09-20T07:22:58;15.03;;;5.50;;
18190;SDS011;47004;51.366;12.348;2022-09-20T07:25:01;16.67;;;6.00;;
18190;SDS011;47004;51.366;12.348;2022-09-20T07:27:04;14.27;;;5.50;;
18190;SDS011;47004;51.366;12.348;2022-09-20T07:29:06;11.73;;;5.27;;
18190;SDS011;47004;51.366;12.348;2022-09-20T07:31:09;12.53;;;5.80;;
18190;SDS011;47004;51.366;12.348;2022-09-20T07:33:11;11.53;;;4.80;;
18190;SDS011;47004;51.366;12.348;2022-09-20T07:35:19;10.53;;;5.33;;
18190;SDS011;47004;51.366;12.348;2022-09-20T07:37:21;10.30;;;5.77;;
18190;SDS011;47004;51.366;12.348;2022-09-20T07:39:23;18.90;;;6.83;;
18190;SDS011;47004;51.366;12.348;2022-09-20T07:41:26;15.90;;;6.07;;
18190;SDS011;47004;51.366;12.348;2022-09-20T07:43:29;11.07;;;5.67;;
18190;SDS011;47004;51.366;12.348;2022-09-20T07:45:32;11.87;;;5.57;;
18190;SDS011;47004;51.366;12.348;2022-09-20T07:47:38;16.80;;;6.13;;
18190;SDS011;47004;51.366;12.348;2022-09-20T07:49:41;9.33;;;5.03;;
18190;SDS011;47004;51.366;12.348;2022-09-20T07:51:44;14.97;;;5.50;;
18190;SDS011;47004;51.366;12.348;2022-09-20T07:53:46;11.93;;;5.13;;
18190;SDS011;47004;51.366;12.348;2022-09-20T07:55:57;15.07;;;5.90;;
18190;SDS011;47004;51.366;12.348;2022-09-20T07:58:00;12.20;;;5.20;;
18190;SDS011;47004;51.366;12.348;2022-09-20T08:00:03;13.50;;;5.30;;
18190;SDS011;47004;51.366;12.348;2022-09-20T08:02:08;16.10;;;6.13;;
18190;SDS011;47004;51.366;12.348;2022-09-20T08:04:13;18.13;;;7.10;;
18190;SDS011;47004;51.366;12.348;2022-09-20T08:06:15;17.47;;;6.87;;
18190;SDS011;47004;51.366;12.348;2022-09-20T08:08:21;13.93;;;6.77;;
18190;SDS011;47004;51.366;12.348;2022-09-20T08:10:23;15.87;;;7.17;;
18190;SDS011;47004;51.366;12.348;2022-09-20T08:12:26;17.60;;;7.33;;
18190;SDS011;47004;51.366;12.348;2022-09-20T08:14:28;17.10;;;7.00;;
18190;SDS011;47004;51.366;12.348;2022-09-20T08:16:30;19.30;;;8.00;;
18190;SDS011;47004;51.366;12.348;2022-09-20T08:18:33;16.10;;;7.63;;
18190;SDS011;47004;51.366;12.348;2022-09-20T08:20:38;20.13;;;9.47;;
18190;SDS011;47004;51.366;12.348;2022-09-20T08:22:41;17.90;;;8.63;;
18190;SDS011;47004;51.366;12.348;2022-09-20T08:25:11;20.23;;;8.63;;
18190;SDS011;47004;51.366;12.348;2022-09-20T08:27:14;18.50;;;8.00;;
18190;SDS011;47004;51.366;12.348;2022-09-20T08:38:46;21.40;;;10.03;;
18190;SDS011;47004;51.366;12.348;2022-09-20T08:40:50;16.53;;;8.80;;
18190;SDS011;47004;51.366;12.348;2022-09-20T08:42:52;21.77;;;9.27;;
18190;SDS011;47004;51.366;12.348;2022-09-20T08:44:55;19.57;;;9.30;;
18190;SDS011;47004;51.366;12.348;2022-09-20T08:47:03;27.17;;;9.33;;
18190;SDS011;47004;51.366;12.348;2022-09-20T08:49:09;34.70;;;10.83;;
18190;SDS011;47004;51.366;12.348;2022-09-20T08:51:19;29.67;;;11.17;;
18190;SDS011;47004;51.366;12.348;2022-09-20T08:53:22;24.73;;;10.17;;
18190;SDS011;47004;51.366;12.348;2022-09-20T08:55:27;21.60;;;8.73;;
18190;SDS011;47004;51.366;12.348;2022-09-20T08:57:32;16.93;;;7.40;;
18190;SDS011;47004;51.366;12.348;2022-09-20T08:59:34;14.27;;;7.30;;
18190;SDS011;47004;51.366;12.348;2022-09-20T09:01:36;13.47;;;6.77;;
18190;SDS011;47004;51.366;12.348;2022-09-20T09:03:37;11.17;;;6.00;;
18190;SDS011;47004;51.366;12.348;2022-09-20T09:05:40;11.63;;;6.10;;
18190;SDS011;47004;51.366;12.348;2022-09-20T09:07:45;12.47;;;5.97;;
18190;SDS011;47004;51.366;12.348;2022-09-20T09:09:48;11.43;;;5.50;;
18190;SDS011;47004;51.366;12.348;2022-09-20T09:11:53;8.27;;;5.00;;
18190;SDS011;47004;51.366;12.348;2022-09-20T09:13:59;9.90;;;5.00;;
18190;SDS011;47004;51.366;12.348;2022-09-20T09:16:05;9.73;;;5.00;;
18190;SDS011;47004;51.366;12.348;2022-09-20T09:18:10;12.93;;;5.27;;
18190;SDS011;47004;51.366;12.348;2022-09-20T09:20:14;10.00;;;5.70;;
18190;SDS011;47004;51.366;12.348;2022-09-20T09:22:22;11.77;;;5.30;;
18190;SDS011;47004;51.366;12.348;2022-09-20T09:24:26;21.97;;;8.13;;
18190;SDS011;47004;51.366;12.348;2022-09-20T09:26:34;14.70;;;6.93;;
18190;SDS011;47004;51.366;12.348;2022-09-20T09:28:37;14.17;;;6.60;;
18190;SDS011;47004;51.366;12.348;2022-09-20T09:30:42;17.23;;;6.87;;
18190;SDS011;47004;51.366;12.348;2022-09-20T09:32:46;16.47;;;7.07;;
18190;SDS011;47004;51.366;12.348;2022-09-20T09:34:50;14.67;;;6.53;;
18190;SDS011;47004;51.366;12.348;2022-09-20T09:36:52;13.23;;;6.00;;
18190;SDS011;47004;51.366;12.348;2022-09-20T09:41:20;15.77;;;5.93;;
18190;SDS011;47004;51.366;12.348;2022-09-20T09:43:26;14.23;;;5.97;;
18190;SDS011;47004;51.366;12.348;2022-09-20T09:45:30;14.60;;;5.50;;
18190;SDS011;47004;51.366;12.348;2022-09-20T09:47:35;11.60;;;6.13;;
18190;SDS011;47004;51.366;12.348;2022-09-20T09:49:37;10.37;;;5.63;;
18190;SDS011;47004;51.366;12.348;2022-09-20T09:54:23;15.37;;;7.27;;
18190;SDS011;47004;51.366;12.348;2022-09-20T09:56:31;11.43;;;6.50;;
18190;SDS011;47004;51.366;12.348;2022-09-20T09:58:50;13.93;;;6.37;;
18190;SDS011;47004;51.366;12.348;2022-09-20T10:01:00;12.13;;;6.10;;
18190;SDS011;47004;51.366;12.348;2022-09-20T10:03:12;13.83;;;6.07;;
18190;SDS011;47004;51.366;12.348;2022-09-20T10:05:34;14.03;;;6.57;;
18190;SDS011;47004;51.366;12.348;2022-09-20T10:07:42;11.57;;;5.73;;
18190;SDS011;47004;51.366;12.348;2022-09-20T10:09:56;14.77;;;5.50;;
18190;SDS011;47004;51.366;12.348;2022-09-20T10:12:11;9.70;;;4.80;;
18190;SDS011;47004;51.366;12.348;2022-09-20T10:14:25;9.83;;;5.17;;
18190;SDS011;47004;51.366;12.348;2022-09-20T10:16:43;12.77;;;5.23;;
18190;SDS011;47004;51.366;12.348;2022-09-20T10:18:58;10.63;;;5.10;;
18190;SDS011;47004;51.366;12.348;2022-09-20T10:21:09;9.47;;;4.87;;
18190;SDS011;47004;51.366;12.348;2022-09-20T10:23:35;9.73;;;4.97;;
18190;SDS011;47004;51.366;12.348;2022-09-20T10:25:50;13.80;;;5.27;;
18190;SDS011;47004;51.366;12.348;2022-09-20T10:28:05;9.07;;;4.80;;
18190;SDS011;47004;51.366;12.348;2022-09-20T10:30:16;8.77;;;4.93;;
18190;SDS011;47004;51.366;12.348;2022-09-20T10:32:24;10.50;;;5.30;;
18190;SDS011;47004;51.366;12.348;2022-09-20T10:34:47;8.53;;;4.73;;
18190;SDS011;47004;51.366;12.348;2022-09-20T10:37:08;9.23;;;4.33;;
18190;SDS011;47004;51.366;12.348;2022-09-20T10:39:16;11.60;;;5.30;;
18190;SDS011;47004;51.366;12.348;2022-09-20T10:44:18;11.40;;;5.47;;
18190;SDS011;47004;51.366;12.348;2022-09-20T10:46:35;10.27;;;5.27;;
18190;SDS011;47004;51.366;12.348;2022-09-20T10:48:46;9.43;;;4.73;;
18190;SDS011;47004;51.366;12.348;2022-09-20T10:50:55;11.13;;;5.57;;
18190;SDS011;47004;51.366;12.348;2022-09-20T10:53:03;11.60;;;5.60;;
18190;SDS011;47004;51.366;12.348;2022-09-20T10:55:25;14.47;;;6.30;;
18190;SDS011;47004;51.366;12.348;2022-09-20T10:57:50;18.33;;;7.07;;
18190;SDS011;47004;51.366;12.348;2022-09-20T11:00:03;16.20;;;7.40;;
18190;SDS011;47004;51.366;12.348;2022-09-20T11:02:23;20.70;;;7.63;;
18190;SDS011;47004;51.366;12.348;2022-09-20T11:04:45;15.40;;;8.13;;
18190;SDS011;47004;51.366;12.348;2022-09-20T11:07:03;16.57;;;7.00;;
18190;SDS011;47004;51.366;12.348;2022-09-20T11:09:12;14.27;;;7.40;;
18190;SDS011;47004;51.366;12.348;2022-09-20T11:11:20;14.97;;;7.30;;
18190;SDS011;47004;51.366;12.348;2022-09-20T11:13:26;18.27;;;7.87;;
18190;SDS011;47004;51.366;12.348;2022-09-20T11:15:34;20.77;;;8.17;;
18190;SDS011;47004;51.366;12.348;2022-09-20T11:17:43;19.13;;;8.20;;
18190;SDS011;47004;51.366;12.348;2022-09-20T11:19:51;21.27;;;8.37;;
18190;SDS011;47004;51.366;12.348;2022-09-20T11:22:01;16.90;;;8.20;;
18190;SDS011;47004;51.366;12.348;2022-09-20T11:24:14;15.90;;;7.47;;
18190;SDS011;47004;51.366;12.348;2022-09-20T11:26:27;15.37;;;7.33;;
18190;SDS011;47004;51.366;12.348;2022-09-20T11:28:35;14.30;;;6.50;;
18190;SDS011;47004;51.366;12.348;2022-09-20T11:30:42;16.90;;;7.50;;
18190;SDS011;47004;51.366;12.348;2022-09-20T11:32:55;12.33;;;6.80;;
18190;SDS011;47004;51.366;12.348;2022-09-20T11:35:03;16.17;;;7.40;;
18190;SDS011;47004;51.366;12.348;2022-09-20T11:37:18;15.30;;;6.20;;
18190;SDS011;47004;51.366;12.348;2022-09-20T11:39:24;15.47;;;5.50;;
18190;SDS011;47004;51.366;12.348;2022-09-20T11:41:31;10.27;;;5.10;;
18190;SDS011;47004;51.366;12.348;2022-09-20T11:43:34;8.77;;;4.57;;
18190;SDS011;47004;51.366;12.348;2022-09-20T11:45:41;7.07;;;4.27;;
18190;SDS011;47004;51.366;12.348;2022-09-20T11:47:45;10.70;;;4.70;;
18190;SDS011;47004;51.366;12.348;2022-09-20T11:49:56;7.40;;;3.97;;
18190;SDS011;47004;51.366;12.348;2022-09-20T11:52:26;8.17;;;3.97;;
18190;SDS011;47004;51.366;12.348;2022-09-20T11:57:10;9.30;;;3.70;;
18190;SDS011;47004;51.366;12.348;2022-09-20T11:59:21;4.27;;;3.47;;
18190;SDS011;47004;51.366;12.348;2022-09-20T12:01:30;5.13;;;2.80;;
18190;SDS011;47004;51.366;12.348;2022-09-20T12:03:35;5.87;;;3.10;;
18190;SDS011;47004;51.366;12.348;2022-09-20T12:05:39;5.70;;;3.23;;
18190;SDS011;47004;51.366;12.348;2022-09-20T12:07:44;6.63;;;3.03;;
18190;SDS011;47004;51.366;12.348;2022-09-20T12:09:50;7.23;;;3.30;;
18190;SDS011;47004;51.366;12.348;2022-09-20T12:11:55;6.33;;;3.50;;
18190;SDS011;47004;51.366;12.348;2022-09-20T12:14:00;5.43;;;3.40;;
18190;SDS011;47004;51.366;12.348;2022-09-20T12:16:05;5.43;;;3.20;;
18190;SDS011;47004;51.366;12.348;2022-09-20T12:20:55;5.60;;;2.80;;
18190;SDS011;47004;51.366;12.348;2022-09-20T12:26:00;5.93;;;3.47;;
18190;SDS011;47004;51.366;12.348;2022-09-20T12:28:10;6.87;;;3.30;;
18190;SDS011;47004;51.366;12.348;2022-09-20T12:30:15;5.60;;;3.27;;
18190;SDS011;47004;51.366;12.348;2022-09-20T12:32:30;4.00;;;2.90;;
18190;SDS011;47004;51.366;12.348;2022-09-20T12:34:54;4.60;;;2.90;;
18190;SDS011;47004;51.366;12.348;2022-09-20T12:37:15;4.37;;;2.50;;
18190;SDS011;47004;51.366;12.348;2022-09-20T12:39:20;4.57;;;2.83;;
18190;SDS011;47004;51.366;12.348;2022-09-20T12:41:26;4.80;;;3.07;;
18190;SDS011;47004;51.366;12.348;2022-09-20T12:43:29;4.83;;;3.17;;
18190;SDS011;47004;51.366;12.348;2022-09-20T12:45:33;4.67;;;2.90;;
18190;SDS011;47004;51.366;12.348;2022-09-20T12:47:36;4.60;;;2.93;;
18190;SDS011;47004;51.366;12.348;2022-09-20T12:49:42;5.10;;;3.00;;
18190;SDS011;47004;51.366;12.348;2022-09-20T12:52:19;3.63;;;2.87;;
18190;SDS011;47004;51.366;12.348;2022-09-20T12:54:48;5.27;;;2.90;;
18190;SDS011;47004;51.366;12.348;2022-09-20T12:56:54;4.13;;;2.60;;
18190;SDS011;47004;51.366;12.348;2022-09-20T12:58:57;3.47;;;2.10;;
18190;SDS011;47004;51.366;12.348;2022-09-20T13:03:29;3.10;;;2.17;;
18190;SDS011;47004;51.366;12.348;2022-09-20T13:05:36;3.97;;;2.10;;
18190;SDS011;47004;51.366;12.348;2022-09-20T13:10:01;3.53;;;2.47;;
18190;SDS011;47004;51.366;12.348;2022-09-20T13:12:15;5.17;;;2.50;;
18190;SDS011;47004;51.366;12.348;2022-09-20T13:14:19;5.43;;;2.50;;
18190;SDS011;47004;51.366;12.348;2022-09-20T13:16:25;3.30;;;2.30;;
18190;SDS011;47004;51.366;12.348;2022-09-20T13:18:30;4.90;;;2.47;;
18190;SDS011;47004;51.366;12.348;2022-09-20T13:20:34;3.20;;;2.23;;
18190;SDS011;47004;51.366;12.348;2022-09-20T13:22:39;3.53;;;2.17;;
18190;SDS011;47004;51.366;12.348;2022-09-20T13:24:45;2.23;;;1.70;;
18190;SDS011;47004;51.366;12.348;2022-09-20T13:26:48;3.77;;;2.13;;
18190;SDS011;47004;51.366;12.348;2022-09-20T13:28:55;5.30;;;1.70;;
18190;SDS011;47004;51.366;12.348;2022-09-20T13:33:28;2.47;;;1.50;;
18190;SDS011;47004;51.366;12.348;2022-09-20T13:35:30;2.57;;;1.43;;
18190;SDS011;47004;51.366;12.348;2022-09-20T13:37:34;1.77;;;1.20;;
18190;SDS011;47004;51.366;12.348;2022-09-20T13:39:36;2.33;;;1.50;;
18190;SDS011;47004;51.366;12.348;2022-09-20T13:41:40;1.40;;;1.20;;
18190;SDS011;47004;51.366;12.348;2022-09-20T13:43:43;3.03;;;1.50;;
18190;SDS011;47004;51.366;12.348;2022-09-20T13:45:54;2.67;;;1.13;;
18190;SDS011;47004;51.366;12.348;2022-09-20T13:47:57;2.73;;;1.20;;
18190;SDS011;47004;51.366;12.348;2022-09-20T13:50:06;2.33;;;1.23;;
18190;SDS011;47004;51.366;12.348;2022-09-20T13:52:21;2.90;;;1.53;;
18190;SDS011;47004;51.366;12.348;2022-09-20T13:54:26;3.63;;;1.53;;